sensor_id;sensor_type;location;lat;lon;timestamp;pressure;altitude;pressure_sealevel;temperature;humidity
23589;BME280;11972;48.078;11.876;2023-04-19T00:02:25;95784.66;;;8.02;100.00
23589;BME280;11972;48.078;11.876;2023-04-19T00:06:25;95785.31;;;7.95;100.00
23589;BME280;11972;48.078;11.876;2023-04-19T00:10:29;95776.22;;;7.90;100.00
23589;BME280;11972;48.078;11.876;2023-04-19T00:14:29;95774.91;;;7.86;100.00
23589;BME280;11972;48.078;11.876;2023-04-19T00:18:30;95769.16;;;7.82;100.00
23589;BME280;11972;48.078;11.876;2023-04-19T00:22:30;95772.75;;;7.81;100.00
23589;BME280;11972;48.078;11.876;2023-04-19T00:26:30;95766.88;;;7.87;100.00
23589;BME280;11972;48.078;11.876;2023-04-19T00:30:31;95772.94;;;7.88;100.00
23589;BME280;11972;48.078;11.876;2023-04-19T00:34:31;95770.50;;;7.86;100.00
23589;BME280;11972;48.078;11.876;2023-04-19T00:38:32;95762.22;;;7.81;100.00
23589;BME280;11972;48.078;11.876;2023-04-19T00:42:32;95754.72;;;7.86;100.00
23589;BME280;11972;48.078;11.876;2023-04-19T00:46:32;95753.84;;;7.86;100.00
23589;BME280;11972;48.078;11.876;2023-04-19T00:50:32;95748.44;;;7.79;100.00
23589;BME280;11972;48.078;11.876;2023-04-19T00:54:35;95741.84;;;7.75;100.00
23589;BME280;11972;48.078;11.876;2023-04-19T00:58:37;95747.41;;;7.72;100.00
23589;BME280;11972;48.078;11.876;2023-04-19T01:02:38;95747.94;;;7.76;100.00
23589;BME280;11972;48.078;11.876;2023-04-19T01:06:39;95744.66;;;7.74;100.00
23589;BME280;11972;48.078;11.876;2023-04-19T01:10:40;95751.03;;;7.71;100.00
23589;BME280;11972;48.078;11.876;2023-04-19T01:14:40;95738.38;;;7.66;100.00
23589;BME280;11972;48.078;11.876;2023-04-19T01:18:41;95741.81;;;7.67;100.00
23589;BME280;11972;48.078;11.876;2023-04-19T01:22:41;95731.94;;;7.69;100.00
23589;BME280;11972;48.078;11.876;2023-04-19T01:26:41;95730.66;;;7.73;100.00
23589;BME280;11972;48.078;11.876;2023-04-19T01:30:42;95725.72;;;7.70;100.00
23589;BME280;11972;48.078;11.876;2023-04-19T01:34:42;95718.66;;;7.70;100.00
23589;BME280;11972;48.078;11.876;2023-04-19T01:38:43;95715.22;;;7.70;100.00
23589;BME280;11972;48.078;11.876;2023-04-19T01:42:43;95723.09;;;7.70;100.00
23589;BME280;11972;48.078;11.876;2023-04-19T01:46:43;95711.25;;;7.66;100.00
23589;BME280;11972;48.078;11.876;2023-04-19T01:50:44;95713.50;;;7.61;100.00
23589;BME280;11972;48.078;11.876;2023-04-19T01:54:44;95705.81;;;7.59;100.00
23589;BME280;11972;48.078;11.876;2023-04-19T01:58:44;95707.94;;;7.64;100.00
23589;BME280;11972;48.078;11.876;2023-04-19T02:02:45;95706.00;;;7.66;100.00
23589;BME280;11972;48.078;11.876;2023-04-19T02:06:45;95705.81;;;7.67;100.00
23589;BME280;11972;48.078;11.876;2023-04-19T02:10:45;95697.44;;;7.64;100.00
23589;BME280;11972;48.078;11.876;2023-04-19T02:14:46;95701.25;;;7.69;100.00
23589;BME280;11972;48.078;11.876;2023-04-19T02:18:46;95687.94;;;7.71;100.00
23589;BME280;11972;48.078;11.876;2023-04-19T02:22:47;95678.22;;;7.71;100.00
23589;BME280;11972;48.078;11.876;2023-04-19T02:26:47;95683.31;;;7.73;100.00
23589;BME280;11972;48.078;11.876;2023-04-19T02:30:47;95676.44;;;7.80;100.00
23589;BME280;11972;48.078;11.876;2023-04-19T02:34:48;95674.31;;;7.76;100.00
23589;BME280;11972;48.078;11.876;2023-04-19T02:38:48;95670.19;;;7.73;100.00
23589;BME280;11972;48.078;11.876;2023-04-19T02:42:48;95665.94;;;7.80;100.00
23589;BME280;11972;48.078;11.876;2023-04-19T02:46:53;95664.59;;;7.76;100.00
23589;BME280;11972;48.078;11.876;2023-04-19T02:50:53;95661.63;;;7.71;100.00
23589;BME280;11972;48.078;11.876;2023-04-19T02:54:54;95666.22;;;7.69;100.00
23589;BME280;11972;48.078;11.876;2023-04-19T02:58:54;95665.56;;;7.67;100.00
23589;BME280;11972;48.078;11.876;2023-04-19T03:02:56;95657.34;;;7.62;100.00
23589;BME280;11972;48.078;11.876;2023-04-19T03:06:56;95648.47;;;7.63;100.00
23589;BME280;11972;48.078;11.876;2023-04-19T03:10:57;95650.13;;;7.64;100.00
23589;BME280;11972;48.078;11.876;2023-04-19T03:14:57;95651.72;;;7.57;100.00
23589;BME280;11972;48.078;11.876;2023-04-19T03:18:57;95645.31;;;7.51;100.00
23589;BME280;11972;48.078;11.876;2023-04-19T03:22:58;95641.88;;;7.51;100.00
23589;BME280;11972;48.078;11.876;2023-04-19T03:26:58;95638.13;;;7.53;100.00
23589;BME280;11972;48.078;11.876;2023-04-19T03:30:58;95634.63;;;7.44;100.00
23589;BME280;11972;48.078;11.876;2023-04-19T03:34:59;95637.72;;;7.40;100.00
23589;BME280;11972;48.078;11.876;2023-04-19T03:39:04;95627.56;;;7.45;100.00
23589;BME280;11972;48.078;11.876;2023-04-19T03:43:04;95631.34;;;7.51;100.00
23589;BME280;11972;48.078;11.876;2023-04-19T03:47:05;95626.75;;;7.53;100.00
23589;BME280;11972;48.078;11.876;2023-04-19T03:51:05;95632.34;;;7.50;100.00
23589;BME280;11972;48.078;11.876;2023-04-19T03:55:06;95633.16;;;7.50;100.00
23589;BME280;11972;48.078;11.876;2023-04-19T03:59:06;95622.16;;;7.46;100.00
23589;BME280;11972;48.078;11.876;2023-04-19T04:03:06;95625.28;;;7.50;100.00
23589;BME280;11972;48.078;11.876;2023-04-19T04:07:07;95624.13;;;7.53;100.00
23589;BME280;11972;48.078;11.876;2023-04-19T04:11:07;95629.72;;;7.50;100.00
23589;BME280;11972;48.078;11.876;2023-04-19T04:15:08;95627.88;;;7.42;100.00
23589;BME280;11972;48.078;11.876;2023-04-19T04:19:09;95629.03;;;7.39;100.00
23589;BME280;11972;48.078;11.876;2023-04-19T04:23:09;95625.88;;;7.36;100.00
23589;BME280;11972;48.078;11.876;2023-04-19T04:27:10;95627.56;;;7.37;100.00
23589;BME280;11972;48.078;11.876;2023-04-19T04:31:10;95628.03;;;7.40;100.00
23589;BME280;11972;48.078;11.876;2023-04-19T04:35:11;95633.97;;;7.42;100.00
23589;BME280;11972;48.078;11.876;2023-04-19T04:39:12;95637.91;;;7.46;100.00
23589;BME280;11972;48.078;11.876;2023-04-19T04:43:12;95633.78;;;7.44;100.00
23589;BME280;11972;48.078;11.876;2023-04-19T04:47:13;95633.31;;;7.49;100.00
23589;BME280;11972;48.078;11.876;2023-04-19T04:51:13;95627.44;;;7.55;100.00
23589;BME280;11972;48.078;11.876;2023-04-19T04:55:13;95626.09;;;7.51;100.00
23589;BME280;11972;48.078;11.876;2023-04-19T04:59:14;95626.41;;;7.47;100.00
23589;BME280;11972;48.078;11.876;2023-04-19T05:03:14;95628.41;;;7.54;100.00
23589;BME280;11972;48.078;11.876;2023-04-19T05:07:15;95619.88;;;7.68;100.00
23589;BME280;11972;48.078;11.876;2023-04-19T05:11:15;95615.63;;;7.67;100.00
23589;BME280;11972;48.078;11.876;2023-04-19T05:15:16;95610.06;;;7.78;100.00
23589;BME280;11972;48.078;11.876;2023-04-19T05:19:16;95625.84;;;7.78;100.00
23589;BME280;11972;48.078;11.876;2023-04-19T05:23:17;95615.63;;;7.75;100.00
23589;BME280;11972;48.078;11.876;2023-04-19T05:27:17;95616.94;;;7.79;100.00
23589;BME280;11972;48.078;11.876;2023-04-19T05:31:18;95611.84;;;7.86;100.00
23589;BME280;11972;48.078;11.876;2023-04-19T05:35:20;95609.06;;;7.87;100.00
23589;BME280;11972;48.078;11.876;2023-04-19T05:39:20;95615.81;;;7.82;100.00
23589;BME280;11972;48.078;11.876;2023-04-19T05:43:20;95620.06;;;7.75;100.00
23589;BME280;11972;48.078;11.876;2023-04-19T05:47:21;95616.63;;;7.66;100.00
23589;BME280;11972;48.078;11.876;2023-04-19T05:51:21;95624.31;;;7.67;100.00
23589;BME280;11972;48.078;11.876;2023-04-19T05:55:21;95610.69;;;7.64;100.00
23589;BME280;11972;48.078;11.876;2023-04-19T05:59:22;95616.28;;;7.69;100.00
23589;BME280;11972;48.078;11.876;2023-04-19T06:03:22;95618.44;;;7.74;100.00
23589;BME280;11972;48.078;11.876;2023-04-19T06:07:22;95616.28;;;7.85;100.00
23589;BME280;11972;48.078;11.876;2023-04-19T06:11:23;95615.16;;;7.96;100.00
23589;BME280;11972;48.078;11.876;2023-04-19T06:15:23;95614.00;;;7.90;100.00
23589;BME280;11972;48.078;11.876;2023-04-19T06:19:25;95619.28;;;7.82;100.00
23589;BME280;11972;48.078;11.876;2023-04-19T06:23:25;95617.59;;;7.81;100.00
23589;BME280;11972;48.078;11.876;2023-04-19T06:27:26;95606.75;;;7.84;100.00
23589;BME280;11972;48.078;11.876;2023-04-19T06:31:26;95608.25;;;7.70;100.00
23589;BME280;11972;48.078;11.876;2023-04-19T06:35:26;95617.09;;;7.61;100.00
23589;BME280;11972;48.078;11.876;2023-04-19T06:39:27;95618.75;;;7.62;100.00
23589;BME280;11972;48.078;11.876;2023-04-19T06:43:27;95608.38;;;7.61;100.00
23589;BME280;11972;48.078;11.876;2023-04-19T06:47:28;95614.50;;;7.69;100.00
23589;BME280;11972;48.078;11.876;2023-04-19T06:51:29;95610.53;;;7.65;100.00
23589;BME280;11972;48.078;11.876;2023-04-19T06:55:29;95610.34;;;7.59;100.00
23589;BME280;11972;48.078;11.876;2023-04-19T06:59:29;95604.75;;;7.54;100.00
23589;BME280;11972;48.078;11.876;2023-04-19T07:03:31;95598.53;;;7.63;100.00
23589;BME280;11972;48.078;11.876;2023-04-19T07:07:31;95602.78;;;7.64;100.00
23589;BME280;11972;48.078;11.876;2023-04-19T07:11:32;95597.88;;;7.69;100.00
23589;BME280;11972;48.078;11.876;2023-04-19T07:15:32;95598.06;;;7.84;100.00
23589;BME280;11972;48.078;11.876;2023-04-19T07:19:33;95599.56;;;7.86;100.00
23589;BME280;11972;48.078;11.876;2023-04-19T07:23:34;95595.94;;;7.95;100.00
23589;BME280;11972;48.078;11.876;2023-04-19T07:27:35;95598.56;;;8.04;100.00
23589;BME280;11972;48.078;11.876;2023-04-19T07:31:35;95592.31;;;7.96;100.00
23589;BME280;11972;48.078;11.876;2023-04-19T07:35:38;95589.84;;;7.95;100.00
23589;BME280;11972;48.078;11.876;2023-04-19T07:39:38;95587.88;;;7.97;100.00
23589;BME280;11972;48.078;11.876;2023-04-19T07:43:39;95588.38;;;8.09;100.00
23589;BME280;11972;48.078;11.876;2023-04-19T07:47:39;95585.09;;;8.15;100.00
23589;BME280;11972;48.078;11.876;2023-04-19T07:51:39;95589.66;;;8.21;100.00
23589;BME280;11972;48.078;11.876;2023-04-19T07:55:40;95581.44;;;8.32;100.00
23589;BME280;11972;48.078;11.876;2023-04-19T07:59:40;95579.44;;;8.34;100.00
23589;BME280;11972;48.078;11.876;2023-04-19T08:03:40;95570.53;;;8.68;100.00
23589;BME280;11972;48.078;11.876;2023-04-19T08:07:41;95566.41;;;9.13;100.00
23589;BME280;11972;48.078;11.876;2023-04-19T08:11:41;95569.38;;;9.72;100.00
23589;BME280;11972;48.078;11.876;2023-04-19T08:15:42;95562.41;;;10.17;100.00
23589;BME280;11972;48.078;11.876;2023-04-19T08:19:42;95564.41;;;10.15;100.00
23589;BME280;11972;48.078;11.876;2023-04-19T08:23:43;95560.63;;;10.32;100.00
23589;BME280;11972;48.078;11.876;2023-04-19T08:27:43;95551.94;;;10.47;100.00
23589;BME280;11972;48.078;11.876;2023-04-19T08:31:45;95542.47;;;10.37;100.00
23589;BME280;11972;48.078;11.876;2023-04-19T08:35:45;95543.66;;;10.64;100.00
23589;BME280;11972;48.078;11.876;2023-04-19T08:39:45;95534.09;;;11.44;100.00
23589;BME280;11972;48.078;11.876;2023-04-19T08:43:46;95532.53;;;11.92;100.00
23589;BME280;11972;48.078;11.876;2023-04-19T08:47:47;95527.94;;;12.29;100.00
23589;BME280;11972;48.078;11.876;2023-04-19T08:51:48;95522.91;;;12.69;100.00
23589;BME280;11972;48.078;11.876;2023-04-19T08:55:50;95519.53;;;12.47;100.00
23589;BME280;11972;48.078;11.876;2023-04-19T08:59:51;95515.84;;;11.92;100.00
23589;BME280;11972;48.078;11.876;2023-04-19T09:03:54;95513.75;;;11.87;100.00
23589;BME280;11972;48.078;11.876;2023-04-19T09:08:21;95509.59;;;12.00;100.00
23589;BME280;11972;48.078;11.876;2023-04-19T09:12:22;95507.44;;;12.10;100.00
23589;BME280;11972;48.078;11.876;2023-04-19T09:16:25;95505.03;;;12.15;100.00
23589;BME280;11972;48.078;11.876;2023-04-19T09:20:37;95494.06;;;12.18;100.00
23589;BME280;11972;48.078;11.876;2023-04-19T09:24:38;95496.59;;;12.33;100.00
23589;BME280;11972;48.078;11.876;2023-04-19T09:28:39;95490.63;;;12.59;100.00
23589;BME280;11972;48.078;11.876;2023-04-19T09:32:47;95484.28;;;12.88;100.00
23589;BME280;11972;48.078;11.876;2023-04-19T09:36:47;95474.25;;;13.31;100.00
23589;BME280;11972;48.078;11.876;2023-04-19T09:40:48;95468.34;;;13.36;100.00
23589;BME280;11972;48.078;11.876;2023-04-19T09:44:58;95470.69;;;13.11;100.00
23589;BME280;11972;48.078;11.876;2023-04-19T09:49:21;95463.13;;;13.01;100.00
23589;BME280;11972;48.078;11.876;2023-04-19T09:53:26;95464.78;;;13.09;100.00
23589;BME280;11972;48.078;11.876;2023-04-19T09:57:27;95457.31;;;13.32;100.00
23589;BME280;11972;48.078;11.876;2023-04-19T10:01:29;95459.31;;;12.69;100.00
23589;BME280;11972;48.078;11.876;2023-04-19T10:05:38;95452.47;;;12.47;100.00
23589;BME280;11972;48.078;11.876;2023-04-19T10:09:42;95447.31;;;12.73;100.00
23589;BME280;11972;48.078;11.876;2023-04-19T10:13:43;95448.59;;;12.90;100.00
23589;BME280;11972;48.078;11.876;2023-04-19T10:17:46;95440.69;;;13.04;100.00
23589;BME280;11972;48.078;11.876;2023-04-19T10:21:48;95428.09;;;13.19;100.00
23589;BME280;11972;48.078;11.876;2023-04-19T10:25:55;95422.22;;;13.37;100.00
23589;BME280;11972;48.078;11.876;2023-04-19T10:30:00;95421.34;;;13.10;100.00
23589;BME280;11972;48.078;11.876;2023-04-19T10:34:04;95417.53;;;13.32;100.00
23589;BME280;11972;48.078;11.876;2023-04-19T10:38:12;95414.31;;;13.70;100.00
23589;BME280;11972;48.078;11.876;2023-04-19T10:42:13;95409.41;;;13.87;100.00
23589;BME280;11972;48.078;11.876;2023-04-19T10:50:22;95393.06;;;13.83;100.00
23589;BME280;11972;48.078;11.876;2023-04-19T10:58:26;95386.25;;;13.08;100.00
23589;BME280;11972;48.078;11.876;2023-04-19T11:02:27;95384.72;;;12.24;100.00
23589;BME280;11972;48.078;11.876;2023-04-19T11:06:27;95388.88;;;11.06;100.00
23589;BME280;11972;48.078;11.876;2023-04-19T11:10:29;95383.75;;;10.47;100.00
23589;BME280;11972;48.078;11.876;2023-04-19T11:14:33;95389.03;;;9.88;100.00
23589;BME280;11972;48.078;11.876;2023-04-19T11:18:34;95391.00;;;9.33;100.00
23589;BME280;11972;48.078;11.876;2023-04-19T11:22:36;95384.63;;;9.05;100.00
23589;BME280;11972;48.078;11.876;2023-04-19T11:26:37;95397.81;;;8.82;100.00
23589;BME280;11972;48.078;11.876;2023-04-19T11:30:38;95393.47;;;8.66;100.00
23589;BME280;11972;48.078;11.876;2023-04-19T11:34:39;95383.88;;;8.73;100.00
23589;BME280;11972;48.078;11.876;2023-04-19T11:38:40;95385.53;;;8.74;100.00
23589;BME280;11972;48.078;11.876;2023-04-19T11:42:40;95391.63;;;8.43;100.00
23589;BME280;11972;48.078;11.876;2023-04-19T11:46:41;95387.34;;;8.34;100.00
23589;BME280;11972;48.078;11.876;2023-04-19T11:50:44;95387.84;;;8.30;100.00
23589;BME280;11972;48.078;11.876;2023-04-19T11:54:44;95386.06;;;8.22;100.00
23589;BME280;11972;48.078;11.876;2023-04-19T11:58:46;95380.44;;;8.41;100.00
23589;BME280;11972;48.078;11.876;2023-04-19T12:02:50;95386.22;;;8.37;100.00
23589;BME280;11972;48.078;11.876;2023-04-19T12:06:58;95382.25;;;8.33;100.00
23589;BME280;11972;48.078;11.876;2023-04-19T12:10:59;95386.06;;;8.22;100.00
23589;BME280;11972;48.078;11.876;2023-04-19T12:15:00;95383.28;;;8.24;100.00
23589;BME280;11972;48.078;11.876;2023-04-19T12:19:13;95391.09;;;7.92;100.00
23589;BME280;11972;48.078;11.876;2023-04-19T12:23:14;95385.28;;;7.50;100.00
23589;BME280;11972;48.078;11.876;2023-04-19T12:27:16;95376.44;;;7.42;100.00
23589;BME280;11972;48.078;11.876;2023-04-19T12:31:17;95382.31;;;7.53;100.00
23589;BME280;11972;48.078;11.876;2023-04-19T12:35:17;95381.34;;;7.54;100.00
23589;BME280;11972;48.078;11.876;2023-04-19T12:39:19;95380.69;;;7.43;100.00
23589;BME280;11972;48.078;11.876;2023-04-19T12:43:19;95378.06;;;7.35;100.00
23589;BME280;11972;48.078;11.876;2023-04-19T12:47:20;95387.59;;;7.28;100.00
23589;BME280;11972;48.078;11.876;2023-04-19T12:51:20;95377.06;;;7.44;100.00
23589;BME280;11972;48.078;11.876;2023-04-19T12:55:20;95373.97;;;7.57;100.00
23589;BME280;11972;48.078;11.876;2023-04-19T12:59:21;95374.44;;;7.36;100.00
23589;BME280;11972;48.078;11.876;2023-04-19T13:03:21;95372.97;;;7.42;100.00
23589;BME280;11972;48.078;11.876;2023-04-19T13:07:22;95374.13;;;7.39;100.00
23589;BME280;11972;48.078;11.876;2023-04-19T13:11:22;95372.97;;;7.42;100.00
23589;BME280;11972;48.078;11.876;2023-04-19T13:15:22;95372.97;;;7.50;100.00
23589;BME280;11972;48.078;11.876;2023-04-19T13:19:23;95371.63;;;7.62;100.00
23589;BME280;11972;48.078;11.876;2023-04-19T13:23:23;95362.19;;;7.92;100.00
23589;BME280;11972;48.078;11.876;2023-04-19T13:27:23;95362.75;;;8.19;100.00
23589;BME280;11972;48.078;11.876;2023-04-19T13:31:24;95355.88;;;8.49;100.00
23589;BME280;11972;48.078;11.876;2023-04-19T13:35:26;95351.31;;;8.04;100.00
23589;BME280;11972;48.078;11.876;2023-04-19T13:39:26;95351.34;;;7.87;100.00
23589;BME280;11972;48.078;11.876;2023-04-19T13:43:27;95346.31;;;7.69;100.00
23589;BME280;11972;48.078;11.876;2023-04-19T13:47:27;95346.31;;;7.78;100.00
23589;BME280;11972;48.078;11.876;2023-04-19T13:51:27;95341.16;;;7.92;100.00
23589;BME280;11972;48.078;11.876;2023-04-19T13:55:28;95335.13;;;8.23;100.00
23589;BME280;11972;48.078;11.876;2023-04-19T13:59:28;95336.66;;;8.01;100.00
23589;BME280;11972;48.078;11.876;2023-04-19T14:03:30;95337.78;;;8.15;100.00
23589;BME280;11972;48.078;11.876;2023-04-19T14:07:30;95337.22;;;7.88;100.00
23589;BME280;11972;48.078;11.876;2023-04-19T14:11:32;95341.22;;;7.68;100.00
23589;BME280;11972;48.078;11.876;2023-04-19T14:15:32;95357.38;;;7.32;100.00
23589;BME280;11972;48.078;11.876;2023-04-19T14:19:32;95347.22;;;6.80;100.00
23589;BME280;11972;48.078;11.876;2023-04-19T14:23:33;95357.03;;;6.54;100.00
23589;BME280;11972;48.078;11.876;2023-04-19T14:27:33;95355.53;;;6.35;100.00
23589;BME280;11972;48.078;11.876;2023-04-19T14:31:34;95354.69;;;6.34;100.00
23589;BME280;11972;48.078;11.876;2023-04-19T14:35:34;95357.63;;;6.31;100.00
23589;BME280;11972;48.078;11.876;2023-04-19T14:39:34;95358.19;;;6.51;100.00
23589;BME280;11972;48.078;11.876;2023-04-19T14:43:35;95363.69;;;6.24;100.00
23589;BME280;11972;48.078;11.876;2023-04-19T14:47:35;95368.13;;;6.31;100.00
23589;BME280;11972;48.078;11.876;2023-04-19T14:51:36;95368.44;;;6.28;100.00
23589;BME280;11972;48.078;11.876;2023-04-19T14:55:36;95367.22;;;6.06;100.00
23589;BME280;11972;48.078;11.876;2023-04-19T14:59:37;95369.66;;;6.00;100.00
23589;BME280;11972;48.078;11.876;2023-04-19T15:03:37;95366.75;;;5.77;100.00
23589;BME280;11972;48.078;11.876;2023-04-19T15:07:38;95373.38;;;5.63;100.00
23589;BME280;11972;48.078;11.876;2023-04-19T15:11:38;95377.66;;;5.64;100.00
23589;BME280;11972;48.078;11.876;2023-04-19T15:15:39;95370.41;;;5.58;100.00
23589;BME280;11972;48.078;11.876;2023-04-19T15:19:39;95382.94;;;5.46;100.00
23589;BME280;11972;48.078;11.876;2023-04-19T15:23:40;95381.91;;;5.65;100.00
23589;BME280;11972;48.078;11.876;2023-04-19T15:27:40;95386.63;;;5.35;100.00
23589;BME280;11972;48.078;11.876;2023-04-19T15:31:41;95387.13;;;5.13;100.00
23589;BME280;11972;48.078;11.876;2023-04-19T15:35:41;95396.50;;;5.41;100.00
23589;BME280;11972;48.078;11.876;2023-04-19T15:39:42;95402.28;;;5.27;100.00
23589;BME280;11972;48.078;11.876;2023-04-19T15:43:43;95397.19;;;5.26;100.00
23589;BME280;11972;48.078;11.876;2023-04-19T15:47:43;95399.22;;;5.14;100.00
23589;BME280;11972;48.078;11.876;2023-04-19T15:51:43;95399.97;;;5.24;100.00
23589;BME280;11972;48.078;11.876;2023-04-19T15:55:44;95405.81;;;5.18;100.00
23589;BME280;11972;48.078;11.876;2023-04-19T15:59:46;95403.72;;;5.21;100.00
23589;BME280;11972;48.078;11.876;2023-04-19T16:03:47;95412.59;;;5.29;100.00
23589;BME280;11972;48.078;11.876;2023-04-19T16:08:05;95409.31;;;5.27;100.00
23589;BME280;11972;48.078;11.876;2023-04-19T16:12:06;95406.41;;;5.12;100.00
23589;BME280;11972;48.078;11.876;2023-04-19T16:16:07;95413.66;;;5.36;100.00
23589;BME280;11972;48.078;11.876;2023-04-19T16:20:07;95416.22;;;5.54;100.00
23589;BME280;11972;48.078;11.876;2023-04-19T16:24:08;95421.56;;;5.44;100.00
23589;BME280;11972;48.078;11.876;2023-04-19T16:28:08;95429.31;;;5.28;100.00
23589;BME280;11972;48.078;11.876;2023-04-19T16:32:09;95432.63;;;5.38;100.00
23589;BME280;11972;48.078;11.876;2023-04-19T16:36:12;95434.69;;;5.08;100.00
23589;BME280;11972;48.078;11.876;2023-04-19T16:40:12;95435.75;;;5.15;100.00
23589;BME280;11972;48.078;11.876;2023-04-19T16:44:13;95445.34;;;5.07;100.00
23589;BME280;11972;48.078;11.876;2023-04-19T16:48:14;95438.28;;;4.89;100.00
23589;BME280;11972;48.078;11.876;2023-04-19T16:52:15;95446.03;;;4.81;100.00
23589;BME280;11972;48.078;11.876;2023-04-19T16:56:16;95450.53;;;4.71;100.00
23589;BME280;11972;48.078;11.876;2023-04-19T17:00:16;95441.41;;;4.75;100.00
23589;BME280;11972;48.078;11.876;2023-04-19T17:04:17;95447.56;;;4.66;100.00
23589;BME280;11972;48.078;11.876;2023-04-19T17:08:17;95440.72;;;4.73;100.00
23589;BME280;11972;48.078;11.876;2023-04-19T17:12:18;95429.31;;;4.74;100.00
23589;BME280;11972;48.078;11.876;2023-04-19T17:16:18;95426.00;;;4.72;100.00
23589;BME280;11972;48.078;11.876;2023-04-19T17:20:18;95426.63;;;4.66;100.00
23589;BME280;11972;48.078;11.876;2023-04-19T17:24:19;95431.84;;;4.66;100.00
23589;BME280;11972;48.078;11.876;2023-04-19T17:28:19;95420.94;;;4.70;100.00
23589;BME280;11972;48.078;11.876;2023-04-19T17:32:19;95411.44;;;4.69;100.00
23589;BME280;11972;48.078;11.876;2023-04-19T17:36:20;95410.75;;;4.67;100.00
23589;BME280;11972;48.078;11.876;2023-04-19T17:40:20;95420.03;;;4.62;100.00
23589;BME280;11972;48.078;11.876;2023-04-19T17:44:21;95412.47;;;4.59;100.00
23589;BME280;11972;48.078;11.876;2023-04-19T17:48:22;95404.91;;;4.56;100.00
23589;BME280;11972;48.078;11.876;2023-04-19T17:52:22;95393.56;;;4.47;100.00
23589;BME280;11972;48.078;11.876;2023-04-19T17:56:25;95396.63;;;4.42;100.00
23589;BME280;11972;48.078;11.876;2023-04-19T18:00:31;95398.84;;;4.37;100.00
23589;BME280;11972;48.078;11.876;2023-04-19T18:04:32;95398.47;;;4.32;100.00
23589;BME280;11972;48.078;11.876;2023-04-19T18:08:32;95398.22;;;4.26;100.00
23589;BME280;11972;48.078;11.876;2023-04-19T18:12:33;95397.41;;;4.25;100.00
23589;BME280;11972;48.078;11.876;2023-04-19T18:16:33;95398.66;;;4.21;100.00
23589;BME280;11972;48.078;11.876;2023-04-19T18:20:34;95401.28;;;4.21;100.00
23589;BME280;11972;48.078;11.876;2023-04-19T18:24:34;95405.53;;;4.22;100.00
23589;BME280;11972;48.078;11.876;2023-04-19T18:28:35;95398.81;;;4.19;100.00
23589;BME280;11972;48.078;11.876;2023-04-19T18:32:36;95397.69;;;4.22;100.00
23589;BME280;11972;48.078;11.876;2023-04-19T18:36:36;95402.75;;;4.23;100.00
23589;BME280;11972;48.078;11.876;2023-04-19T18:40:37;95408.97;;;4.22;100.00
23589;BME280;11972;48.078;11.876;2023-04-19T18:44:37;95411.22;;;4.17;100.00
23589;BME280;11972;48.078;11.876;2023-04-19T18:48:38;95409.25;;;4.19;100.00
23589;BME280;11972;48.078;11.876;2023-04-19T18:52:38;95399.66;;;4.20;100.00
23589;BME280;11972;48.078;11.876;2023-04-19T18:56:38;95410.09;;;4.20;100.00
23589;BME280;11972;48.078;11.876;2023-04-19T19:00:39;95404.03;;;4.19;100.00
23589;BME280;11972;48.078;11.876;2023-04-19T19:04:39;95413.81;;;4.17;100.00
23589;BME280;11972;48.078;11.876;2023-04-19T19:08:40;95412.31;;;4.15;100.00
23589;BME280;11972;48.078;11.876;2023-04-19T19:12:40;95417.16;;;4.10;100.00
23589;BME280;11972;48.078;11.876;2023-04-19T19:16:41;95433.56;;;4.02;100.00
23589;BME280;11972;48.078;11.876;2023-04-19T19:20:42;95438.13;;;4.00;100.00
23589;BME280;11972;48.078;11.876;2023-04-19T19:24:42;95448.41;;;4.02;100.00
23589;BME280;11972;48.078;11.876;2023-04-19T19:28:43;95450.22;;;4.01;100.00
23589;BME280;11972;48.078;11.876;2023-04-19T19:32:43;95442.38;;;4.01;100.00
23589;BME280;11972;48.078;11.876;2023-04-19T19:36:43;95429.97;;;4.03;100.00
23589;BME280;11972;48.078;11.876;2023-04-19T19:40:44;95437.81;;;4.03;100.00
23589;BME280;11972;48.078;11.876;2023-04-19T19:44:44;95432.31;;;4.06;100.00
23589;BME280;11972;48.078;11.876;2023-04-19T19:48:44;95428.88;;;4.06;100.00
23589;BME280;11972;48.078;11.876;2023-04-19T19:52:45;95425.44;;;4.05;100.00
23589;BME280;11972;48.078;11.876;2023-04-19T19:56:45;95420.06;;;4.07;100.00
23589;BME280;11972;48.078;11.876;2023-04-19T20:00:45;95418.41;;;4.06;100.00
23589;BME280;11972;48.078;11.876;2023-04-19T20:04:46;95420.06;;;4.07;100.00
23589;BME280;11972;48.078;11.876;2023-04-19T20:08:46;95413.88;;;4.08;100.00
23589;BME280;11972;48.078;11.876;2023-04-19T20:12:48;95409.31;;;4.10;100.00
23589;BME280;11972;48.078;11.876;2023-04-19T20:16:49;95414.81;;;4.07;100.00
23589;BME280;11972;48.078;11.876;2023-04-19T20:20:49;95401.09;;;4.05;100.00
23589;BME280;11972;48.078;11.876;2023-04-19T20:24:52;95412.53;;;4.04;100.00
23589;BME280;11972;48.078;11.876;2023-04-19T20:28:53;95404.03;;;3.92;100.00
23589;BME280;11972;48.078;11.876;2023-04-19T20:32:53;95414.72;;;3.71;100.00
23589;BME280;11972;48.078;11.876;2023-04-19T20:36:54;95420.38;;;3.57;100.00
23589;BME280;11972;48.078;11.876;2023-04-19T20:40:54;95414.75;;;3.52;100.00
23589;BME280;11972;48.078;11.876;2023-04-19T20:44:56;95411.44;;;3.49;100.00
23589;BME280;11972;48.078;11.876;2023-04-19T20:48:56;95407.91;;;3.51;100.00
23589;BME280;11972;48.078;11.876;2023-04-19T20:52:56;95417.53;;;3.50;100.00
23589;BME280;11972;48.078;11.876;2023-04-19T20:57:00;95417.38;;;3.52;100.00
23589;BME280;11972;48.078;11.876;2023-04-19T21:01:03;95404.03;;;3.55;100.00
23589;BME280;11972;48.078;11.876;2023-04-19T21:05:04;95405.63;;;3.65;100.00